Für Piloten

Informationen für Piloten zum Flugplatz Borken-Hoxfeld
Hier findest Du alle relevanten Informationen, die Du als Pilot benötigst, um Borken-Hoxfeld anzufliegen.

Flugplatz: Borken-Hoxfeld ICAO-Code: EDLY
Borken-Hoxfeld Info: 122,925 Mhz
GAFOR Gebiet: 32
Platzrunde: Motorflug; -> Südplatzrunde; Segelflug; -> Nordplatzrunde;
Landegebühr: z.Zt. 5,00 Euro
Platzhöhe: 48m üMSL
Pisten: 12/30 – 740 m x 30 m, GRAS
Betriebszeiten: PPR (in den Sommermonaten Mittagspause beachten)

 

Wetterforecast:

Available data for EDDL from the past 2 hours
DUESSELDORF
Metar
EDDL 181650Z 33009KT 9999 FEW042 08/01 Q1020 NOSIG

16:50 UTC

Wind: 330° 9kt

Visibility: 9999 m

Sky: FEW 4200 ft

Temp: 8 deg C / 46.4 deg F

Dewpoint: 1 deg C / 33.8 deg F

Pressure: 1020 hPa

TAF
TAF EDDL 181100Z 1812/1918 29011KT 9999 SCT030 PROB30 TEMPO 1812/1815 29015G25KT BECMG 1816/1819 29005KT BECMG 1819/1822 VRB03KT BECMG 1907/1910 20005KT TEMPO 1911/1916 26005KT

Alle obigen Informationen ersetzen nicht die vorgeschriebene, persönliche Flugvorbereitung.